createdAt,value
2018-08-17T00:00:15.789Z,1001.21
2018-08-17T00:01:15.819Z,1001.17
2018-08-17T00:02:15.839Z,1001.17
2018-08-17T00:03:15.870Z,1001.15
2018-08-17T00:04:15.895Z,1001.17
2018-08-17T00:05:15.992Z,1001.18
2018-08-17T00:06:15.944Z,1001.21
2018-08-17T00:07:15.975Z,1001.16
2018-08-17T00:08:16.003Z,1001.15
2018-08-17T00:09:16.019Z,1001.14
2018-08-17T00:10:16.051Z,1001.10
2018-08-17T00:11:16.076Z,1001.13
2018-08-17T00:12:16.101Z,1001.12
2018-08-17T00:13:16.127Z,1001.09
2018-08-17T00:14:16.156Z,1001.04
2018-08-17T00:15:16.174Z,1001.03
2018-08-17T00:16:16.203Z,1001.04
2018-08-17T00:17:16.247Z,1001.08
2018-08-17T00:18:16.253Z,1001.06
2018-08-17T00:19:16.284Z,1001.05
2018-08-17T00:20:16.318Z,1001.06
2018-08-17T00:21:16.334Z,1001.07
2018-08-17T00:22:16.366Z,1001.06
2018-08-17T00:23:16.377Z,1001.07
2018-08-17T00:24:16.424Z,1001.01
2018-08-17T00:25:16.480Z,1001.00
2018-08-17T00:26:16.466Z,1001.01
2018-08-17T00:27:16.494Z,1000.98
2018-08-17T00:28:16.512Z,1001.00
2018-08-17T00:29:16.545Z,1000.95
2018-08-17T00:30:16.566Z,1000.93
2018-08-17T00:31:16.594Z,1000.90
2018-08-17T00:32:16.614Z,1000.90
2018-08-17T00:33:16.649Z,1000.94
2018-08-17T00:34:16.674Z,1000.92
2018-08-17T00:35:16.702Z,1000.92
2018-08-17T00:36:16.719Z,1000.95
2018-08-17T00:37:16.744Z,1000.92
2018-08-17T00:38:16.772Z,1000.95
2018-08-17T00:39:16.795Z,1000.90
2018-08-17T00:40:16.819Z,1000.93
2018-08-17T00:41:16.842Z,1000.95
2018-08-17T00:42:16.872Z,1000.91
2018-08-17T00:43:16.897Z,1000.92
2018-08-17T00:44:16.922Z,1000.90
2018-08-17T00:45:16.950Z,1000.88
2018-08-17T00:46:16.983Z,1000.85
2018-08-17T00:47:17.002Z,1000.84
2018-08-17T00:48:17.022Z,1000.84
2018-08-17T00:49:17.052Z,1000.85
2018-08-17T00:50:17.074Z,1000.85
2018-08-17T00:51:17.096Z,1000.87
2018-08-17T00:52:17.124Z,1000.85
2018-08-17T00:53:17.152Z,1000.89
2018-08-17T00:54:17.177Z,1000.86
2018-08-17T00:55:17.205Z,1000.88
2018-08-17T00:56:17.237Z,1000.90
2018-08-17T00:57:17.250Z,1000.87
2018-08-17T00:58:17.282Z,1000.87
2018-08-17T00:59:17.441Z,1000.90
2018-08-17T01:00:17.331Z,1000.91
2018-08-17T01:01:17.354Z,1000.91
2018-08-17T01:02:17.376Z,1000.92
2018-08-17T01:03:17.422Z,1000.92
2018-08-17T01:04:17.430Z,1000.91
2018-08-17T01:05:17.463Z,1000.93
2018-08-17T01:06:17.484Z,1000.94
2018-08-17T01:07:17.533Z,1000.93
2018-08-17T01:08:17.548Z,1000.93
2018-08-17T01:09:17.558Z,1000.87
2018-08-17T01:10:17.583Z,1000.85
2018-08-17T01:11:17.610Z,1000.87
2018-08-17T01:12:17.648Z,1000.89
2018-08-17T01:13:17.657Z,1000.87
2018-08-17T01:14:17.696Z,1000.87
2018-08-17T01:15:17.714Z,1000.86
2018-08-17T01:16:17.741Z,1000.82
2018-08-17T01:17:17.764Z,1000.82
2018-08-17T01:18:17.795Z,1000.85
2018-08-17T01:19:17.817Z,1000.82
2018-08-17T01:20:17.841Z,1000.82
2018-08-17T01:21:17.862Z,1000.82
2018-08-17T01:22:17.893Z,1000.84
2018-08-17T01:23:17.908Z,1000.83
2018-08-17T01:24:17.939Z,1000.88
2018-08-17T01:25:17.967Z,1000.85
2018-08-17T01:26:17.987Z,1000.86
2018-08-17T01:27:18.012Z,1000.82
2018-08-17T01:28:18.041Z,1000.84
2018-08-17T01:29:18.065Z,1000.86
2018-08-17T01:30:18.093Z,1000.86
2018-08-17T01:31:18.111Z,1000.89
2018-08-17T01:32:18.149Z,1000.89
2018-08-17T01:33:18.168Z,1000.92
2018-08-17T01:34:18.200Z,1000.94
2018-08-17T01:35:18.215Z,1000.96
2018-08-17T01:36:18.242Z,1000.96
2018-08-17T01:37:18.264Z,1001.01
2018-08-17T01:38:18.296Z,1001.00
2018-08-17T01:39:18.318Z,1000.97
2018-08-17T01:40:18.345Z,1001.01
2018-08-17T01:41:18.371Z,1001.05
2018-08-17T01:42:18.401Z,1001.02
2018-08-17T01:43:18.419Z,1001.01
2018-08-17T01:44:18.445Z,1000.99
2018-08-17T01:45:18.469Z,1001.01
2018-08-17T01:46:18.499Z,1000.99
2018-08-17T01:47:18.518Z,1001.02
2018-08-17T01:48:18.545Z,1001.02
2018-08-17T01:49:18.570Z,1001.03
2018-08-17T01:50:18.601Z,1001.06
2018-08-17T01:51:18.625Z,1001.03
2018-08-17T01:52:18.661Z,1000.98
2018-08-17T01:53:18.670Z,1000.98
2018-08-17T01:54:18.702Z,1001.00
2018-08-17T01:55:18.719Z,1001.04
2018-08-17T01:56:18.751Z,1001.02
2018-08-17T01:57:18.771Z,1001.01
2018-08-17T01:58:18.799Z,1001.04
2018-08-17T01:59:18.824Z,1000.97
2018-08-17T02:00:18.860Z,1001.01
2018-08-17T02:01:18.869Z,1000.97
2018-08-17T02:02:18.953Z,1001.01
2018-08-17T02:03:18.927Z,1000.99
2018-08-17T02:04:18.955Z,1001.01
2018-08-17T02:05:18.969Z,1001.04
2018-08-17T02:06:19.000Z,1001.04
2018-08-17T02:07:19.026Z,1001.03
2018-08-17T02:08:19.052Z,1001.03
2018-08-17T02:09:19.078Z,1001.08
2018-08-17T02:10:19.099Z,1001.10
2018-08-17T02:11:19.134Z,1001.06
2018-08-17T02:12:19.154Z,1001.03
2018-08-17T02:13:19.177Z,1001.05
2018-08-17T02:14:19.195Z,1001.05
2018-08-17T02:15:19.226Z,1001.06
2018-08-17T02:16:19.261Z,1001.06
2018-08-17T02:17:19.276Z,1001.05
2018-08-17T02:18:19.294Z,1001.03
2018-08-17T02:19:19.324Z,1001.04
2018-08-17T02:20:19.349Z,1001.05
2018-08-17T02:21:19.370Z,1001.03
2018-08-17T02:22:19.409Z,1001.03
2018-08-17T02:23:19.430Z,1001.02
2018-08-17T02:24:19.502Z,1001.01
2018-08-17T02:25:19.478Z,1001.05
2018-08-17T02:26:19.499Z,1001.03
2018-08-17T02:27:19.524Z,1001.01
2018-08-17T02:28:19.549Z,1001.00
2018-08-17T02:29:19.570Z,1001.01
2018-08-17T02:30:19.596Z,1000.94
2018-08-17T02:31:19.626Z,1000.96
2018-08-17T02:32:19.650Z,1000.98
2018-08-17T02:33:19.672Z,1000.98
2018-08-17T02:34:19.703Z,1001.00
2018-08-17T02:35:19.723Z,1000.98
2018-08-17T02:36:19.748Z,1000.97
2018-08-17T02:37:19.768Z,1000.97
2018-08-17T02:38:19.797Z,1000.98
2018-08-17T02:39:19.823Z,1000.94
2018-08-17T02:40:19.856Z,1000.99
2018-08-17T02:41:19.876Z,1000.97
2018-08-17T02:42:19.897Z,1000.94
2018-08-17T02:43:19.918Z,1000.96
2018-08-17T02:44:19.940Z,1000.96
2018-08-17T02:45:19.968Z,1000.95
2018-08-17T02:46:20.002Z,1000.90
2018-08-17T02:47:20.016Z,1000.94
2018-08-17T02:48:20.048Z,1000.90
2018-08-17T02:49:20.068Z,1000.89
2018-08-17T02:50:20.100Z,1000.88
2018-08-17T02:51:20.117Z,1000.86
2018-08-17T02:52:20.148Z,1000.85
2018-08-17T02:53:20.166Z,1000.88
2018-08-17T02:54:20.201Z,1000.87
2018-08-17T02:55:20.221Z,1000.90
2018-08-17T02:56:20.241Z,1000.87
2018-08-17T02:57:20.268Z,1000.87
2018-08-17T02:58:20.288Z,1000.85
2018-08-17T02:59:20.323Z,1000.86
2018-08-17T03:00:20.346Z,1000.87
2018-08-17T03:01:20.366Z,1000.87
2018-08-17T03:02:20.387Z,1000.88
2018-08-17T03:03:20.417Z,1000.87
2018-08-17T03:04:20.441Z,1000.86
2018-08-17T03:05:20.465Z,1000.88
2018-08-17T03:06:20.492Z,1000.90
2018-08-17T03:07:20.513Z,1000.89
2018-08-17T03:08:20.542Z,1000.91
2018-08-17T03:09:20.569Z,1000.91
2018-08-17T03:10:20.590Z,1000.92
2018-08-17T03:11:20.613Z,1000.95
2018-08-17T03:12:20.636Z,1000.91
2018-08-17T03:13:20.658Z,1000.91
2018-08-17T03:14:20.687Z,1000.94
2018-08-17T03:15:20.710Z,1000.92
2018-08-17T03:16:20.735Z,1000.89
2018-08-17T03:17:20.765Z,1000.91
2018-08-17T03:18:20.782Z,1000.95
2018-08-17T03:19:20.812Z,1000.91
2018-08-17T03:20:20.839Z,1000.90
2018-08-17T03:21:20.863Z,1000.93
2018-08-17T03:22:20.887Z,1000.93
2018-08-17T03:23:20.911Z,1000.94
2018-08-17T03:24:20.933Z,1000.94
2018-08-17T03:25:20.961Z,1000.98
2018-08-17T03:26:20.986Z,1000.92
2018-08-17T03:27:21.013Z,1000.95
2018-08-17T03:28:21.045Z,1000.94
2018-08-17T03:29:21.059Z,1000.95
2018-08-17T03:30:21.088Z,1000.97
2018-08-17T03:31:21.105Z,1000.95
2018-08-17T03:32:21.134Z,1000.99
2018-08-17T03:33:21.154Z,1001.03
2018-08-17T03:34:21.182Z,1000.99
2018-08-17T03:35:21.205Z,1001.00
2018-08-17T03:36:21.228Z,1000.98
2018-08-17T03:37:21.344Z,1001.01
2018-08-17T03:38:21.280Z,1000.97
2018-08-17T03:39:21.309Z,1000.98
2018-08-17T03:40:21.339Z,1001.00
2018-08-17T03:41:21.372Z,1000.98
2018-08-17T03:42:21.373Z,1001.03
2018-08-17T03:43:21.407Z,1001.02
2018-08-17T03:44:21.426Z,1001.04
2018-08-17T03:45:21.451Z,1001.05
2018-08-17T03:46:21.499Z,1001.04
2018-08-17T03:47:21.509Z,1001.08
2018-08-17T03:48:21.532Z,1001.11
2018-08-17T03:49:21.548Z,1001.12
2018-08-17T03:50:21.581Z,1001.15
2018-08-17T03:51:21.600Z,1001.14
2018-08-17T03:52:21.672Z,1001.16
2018-08-17T03:53:21.650Z,1001.17
2018-08-17T03:54:21.672Z,1001.20
2018-08-17T03:55:21.693Z,1001.23
2018-08-17T03:56:21.726Z,1001.21
2018-08-17T03:57:21.752Z,1001.24
2018-08-17T03:58:21.767Z,1001.22
2018-08-17T03:59:21.811Z,1001.24
2018-08-17T04:00:21.837Z,1001.29
2018-08-17T04:01:21.846Z,1001.29
2018-08-17T04:02:21.870Z,1001.28
2018-08-17T04:03:21.896Z,1001.31
2018-08-17T04:04:21.920Z,1001.32
2018-08-17T04:05:21.943Z,1001.34
2018-08-17T04:06:21.968Z,1001.35
2018-08-17T04:07:21.997Z,1001.33
2018-08-17T04:08:22.034Z,1001.34
2018-08-17T04:09:22.036Z,1001.36
2018-08-17T04:10:22.067Z,1001.43
2018-08-17T04:11:22.120Z,1001.39
2018-08-17T04:12:22.118Z,1001.41
2018-08-17T04:13:22.140Z,1001.41
2018-08-17T04:14:22.187Z,1001.41
2018-08-17T04:15:22.244Z,1001.41
2018-08-17T04:16:22.212Z,1001.42
2018-08-17T04:17:22.236Z,1001.43
2018-08-17T04:18:22.261Z,1001.40
2018-08-17T04:19:22.305Z,1001.45
2018-08-17T04:20:22.310Z,1001.44
2018-08-17T04:21:22.331Z,1001.48
2018-08-17T04:22:22.369Z,1001.44
2018-08-17T04:23:22.377Z,1001.45
2018-08-17T04:24:22.415Z,1001.48
2018-08-17T04:25:22.446Z,1001.46
2018-08-17T04:26:22.453Z,1001.45
2018-08-17T04:27:22.487Z,1001.49
2018-08-17T04:28:22.508Z,1001.47
2018-08-17T04:29:22.548Z,1001.50
2018-08-17T04:30:22.563Z,1001.52
2018-08-17T04:31:22.590Z,1001.52
2018-08-17T04:32:22.611Z,1001.51
2018-08-17T04:33:22.630Z,1001.55
2018-08-17T04:34:22.660Z,1001.57
2018-08-17T04:35:22.712Z,1001.58
2018-08-17T04:36:22.703Z,1001.60
2018-08-17T04:37:22.742Z,1001.62
2018-08-17T04:38:22.791Z,1001.57
2018-08-17T04:39:22.825Z,1001.60
2018-08-17T04:40:22.800Z,1001.59
2018-08-17T04:41:22.828Z,1001.66
2018-08-17T04:42:22.850Z,1001.67
2018-08-17T04:43:22.869Z,1001.71
2018-08-17T04:44:22.898Z,1001.68
2018-08-17T04:45:22.931Z,1001.68
2018-08-17T04:46:22.942Z,1001.69
2018-08-17T04:47:23.069Z,1001.73
2018-08-17T04:48:23.014Z,1001.73
2018-08-17T04:49:23.036Z,1001.71
2018-08-17T04:50:23.044Z,1001.75
2018-08-17T04:51:23.068Z,1001.74
2018-08-17T04:52:23.089Z,1001.77
2018-08-17T04:53:23.128Z,1001.78
2018-08-17T04:54:23.142Z,1001.82
2018-08-17T04:55:23.160Z,1001.77
2018-08-17T04:56:23.184Z,1001.79
2018-08-17T04:57:23.258Z,1001.81
2018-08-17T04:58:23.239Z,1001.82
2018-08-17T04:59:23.283Z,1001.87
2018-08-17T05:00:23.285Z,1001.85
2018-08-17T05:01:23.317Z,1001.87
2018-08-17T05:02:23.351Z,1001.85
2018-08-17T05:03:23.391Z,1001.88
2018-08-17T05:04:23.381Z,1001.83
2018-08-17T05:05:23.421Z,1001.86
2018-08-17T05:06:23.434Z,1001.84
2018-08-17T05:07:23.454Z,1001.86
2018-08-17T05:08:23.480Z,1001.90
2018-08-17T05:09:23.504Z,1001.86
2018-08-17T05:10:23.532Z,1001.88
2018-08-17T05:11:23.552Z,1001.90
2018-08-17T05:12:23.584Z,1001.91
2018-08-17T05:13:23.613Z,1001.90
2018-08-17T05:14:23.626Z,1001.89
2018-08-17T05:15:23.646Z,1001.91
2018-08-17T05:16:23.672Z,1001.94
2018-08-17T05:17:23.696Z,1001.94
2018-08-17T05:18:23.728Z,1001.99
2018-08-17T05:19:23.751Z,1002.01
2018-08-17T05:20:23.924Z,1002.02
2018-08-17T05:21:23.839Z,1002.06
2018-08-17T05:22:23.821Z,1002.04
2018-08-17T05:23:23.907Z,1002.03
2018-08-17T05:24:23.908Z,1002.04
2018-08-17T05:25:23.919Z,1002.06
2018-08-17T05:26:23.921Z,1002.09
2018-08-17T05:27:23.939Z,1002.05
2018-08-17T05:28:23.969Z,1002.11
2018-08-17T05:29:23.988Z,1002.10
2018-08-17T05:31:24.039Z,1002.11
2018-08-17T05:32:24.122Z,1002.10
2018-08-17T05:33:24.197Z,1002.11
2018-08-17T05:34:24.112Z,1002.08
2018-08-17T05:35:24.137Z,1002.08
2018-08-17T05:36:24.161Z,1002.10
2018-08-17T05:37:24.183Z,1002.11
2018-08-17T05:38:24.300Z,1002.10
2018-08-17T05:39:24.231Z,1002.13
2018-08-17T05:40:24.268Z,1002.12
2018-08-17T05:41:24.271Z,1002.09
2018-08-17T05:42:24.310Z,1002.09
2018-08-17T05:44:24.354Z,1002.13
2018-08-17T05:45:24.373Z,1002.15
2018-08-17T05:46:24.409Z,1002.18
2018-08-17T05:47:24.428Z,1002.21
2018-08-17T05:48:24.558Z,1002.20
2018-08-17T05:49:24.490Z,1002.23
2018-08-17T05:50:24.507Z,1002.25
2018-08-17T05:51:24.527Z,1002.25
2018-08-17T05:52:24.552Z,1002.20
2018-08-17T05:53:24.565Z,1002.27
2018-08-17T05:54:24.598Z,1002.22
2018-08-17T05:55:24.614Z,1002.24
2018-08-17T05:56:24.641Z,1002.24
2018-08-17T05:57:24.670Z,1002.28
2018-08-17T05:58:24.687Z,1002.28
2018-08-17T05:59:24.712Z,1002.28
2018-08-17T06:00:24.743Z,1002.25
2018-08-17T06:01:24.759Z,1002.30
2018-08-17T06:02:24.830Z,1002.31
2018-08-17T06:03:24.824Z,1002.32
2018-08-17T06:04:24.834Z,1002.36
2018-08-17T06:05:24.860Z,1002.35
2018-08-17T06:06:24.898Z,1002.33
2018-08-17T06:07:24.905Z,1002.35
2018-08-17T06:08:25.034Z,1002.38
2018-08-17T06:09:24.955Z,1002.40
2018-08-17T06:10:24.991Z,1002.39
2018-08-17T06:11:25.119Z,1002.35
2018-08-17T06:12:25.047Z,1002.36
2018-08-17T06:13:25.061Z,1002.35
2018-08-17T06:14:25.082Z,1002.36
2018-08-17T06:15:25.166Z,1002.39
2018-08-17T06:16:25.129Z,1002.38
2018-08-17T06:17:25.158Z,1002.41
2018-08-17T06:18:25.182Z,1002.40
2018-08-17T06:19:25.201Z,1002.43
2018-08-17T06:20:25.248Z,1002.46
2018-08-17T06:21:25.252Z,1002.48
2018-08-17T06:22:25.277Z,1002.46
2018-08-17T06:23:25.306Z,1002.47
2018-08-17T06:24:25.322Z,1002.44
2018-08-17T06:25:25.344Z,1002.50
2018-08-17T06:26:25.379Z,1002.51
2018-08-17T06:27:25.468Z,1002.49
2018-08-17T06:28:25.427Z,1002.49
2018-08-17T06:29:25.448Z,1002.47
2018-08-17T06:30:25.559Z,1002.48
2018-08-17T06:31:25.497Z,1002.49
2018-08-17T06:32:25.522Z,1002.49
2018-08-17T06:33:25.542Z,1002.49
2018-08-17T06:34:25.576Z,1002.53
2018-08-17T06:35:25.594Z,1002.54
2018-08-17T06:36:25.621Z,1002.59
2018-08-17T06:37:25.746Z,1002.58
2018-08-17T06:38:25.671Z,1002.57
2018-08-17T06:39:25.850Z,1002.58
2018-08-17T06:40:25.728Z,1002.61
2018-08-17T06:41:25.819Z,1002.63
2018-08-17T06:42:25.763Z,1002.60
2018-08-17T06:43:25.844Z,1002.66
2018-08-17T06:44:25.823Z,1002.69
2018-08-17T06:45:25.847Z,1002.69
2018-08-17T06:46:25.872Z,1002.67
2018-08-17T06:47:25.888Z,1002.72
2018-08-17T06:48:25.930Z,1002.71
2018-08-17T06:49:25.942Z,1002.72
2018-08-17T06:51:25.986Z,1002.69
2018-08-17T06:52:26.029Z,1002.71
2018-08-17T06:53:26.047Z,1002.69
2018-08-17T06:54:26.081Z,1002.72
2018-08-17T06:55:26.098Z,1002.68
2018-08-17T06:56:26.120Z,1002.70
2018-08-17T06:57:26.142Z,1002.71
2018-08-17T06:58:26.172Z,1002.70
2018-08-17T06:59:26.187Z,1002.74
2018-08-17T07:00:26.220Z,1002.71
2018-08-17T07:01:26.307Z,1002.69
2018-08-17T07:02:26.318Z,1002.75
2018-08-17T07:03:26.291Z,1002.73
2018-08-17T07:04:26.312Z,1002.75
2018-08-17T07:05:26.338Z,1002.71
2018-08-17T07:06:26.368Z,1002.66
2018-08-17T07:07:26.390Z,1002.66
2018-08-17T07:08:26.425Z,1002.71
2018-08-17T07:09:26.546Z,1002.76
2018-08-17T07:10:26.467Z,1002.71
2018-08-17T07:11:26.501Z,1002.77
2018-08-17T07:12:26.515Z,1002.69
2018-08-17T07:13:26.596Z,1002.72
2018-08-17T07:14:26.571Z,1002.67
2018-08-17T07:15:26.597Z,1002.68
2018-08-17T07:16:26.624Z,1002.71
2018-08-17T07:17:26.648Z,1002.65
2018-08-17T07:18:26.708Z,1002.72
2018-08-17T07:19:26.700Z,1002.67
2018-08-17T07:20:26.745Z,1002.72
2018-08-17T07:21:26.755Z,1002.70
2018-08-17T07:22:26.772Z,1002.75
2018-08-17T07:23:26.800Z,1002.77
2018-08-17T07:24:26.816Z,1002.78
2018-08-17T07:25:26.851Z,1002.78
2018-08-17T07:26:26.873Z,1002.81
2018-08-17T07:27:26.896Z,1002.82
2018-08-17T07:28:26.932Z,1002.86
2018-08-17T07:29:26.954Z,1002.83
2018-08-17T07:30:26.975Z,1002.82
2018-08-17T07:31:26.999Z,1002.85
2018-08-17T07:32:27.028Z,1002.87
2018-08-17T07:33:27.052Z,1002.86
2018-08-17T07:34:27.081Z,1002.87
2018-08-17T07:35:27.096Z,1002.89
2018-08-17T07:36:27.137Z,1002.90
2018-08-17T07:37:27.172Z,1002.91
2018-08-17T07:38:27.178Z,1002.89
2018-08-17T07:39:27.204Z,1002.86
2018-08-17T07:40:27.226Z,1002.89
2018-08-17T07:41:27.257Z,1002.87
2018-08-17T07:42:27.277Z,1002.88
2018-08-17T07:43:27.306Z,1002.88
2018-08-17T07:44:27.336Z,1002.90
2018-08-17T07:45:27.363Z,1002.90
2018-08-17T07:46:27.382Z,1002.94
2018-08-17T07:47:27.472Z,1002.96
2018-08-17T07:48:27.432Z,1002.94
2018-08-17T07:49:27.462Z,1002.95
2018-08-17T07:50:27.488Z,1002.96
2018-08-17T07:51:27.516Z,1002.99
2018-08-17T07:52:27.532Z,1002.99
2018-08-17T07:53:27.595Z,1002.97
2018-08-17T07:54:27.583Z,1003.05
2018-08-17T07:55:27.617Z,1003.03
2018-08-17T07:56:27.641Z,1003.00
2018-08-17T07:57:27.669Z,1003.03
2018-08-17T07:58:27.692Z,1003.02
2018-08-17T07:59:27.720Z,1003.08
2018-08-17T08:00:27.744Z,1003.08
2018-08-17T08:01:27.771Z,1003.09
2018-08-17T08:02:27.788Z,1003.04
2018-08-17T08:03:27.819Z,1003.09
2018-08-17T08:04:27.858Z,1003.08
2018-08-17T08:05:27.876Z,1003.09
2018-08-17T08:06:27.914Z,1003.14
2018-08-17T08:07:27.924Z,1003.15
2018-08-17T08:08:27.953Z,1003.13
2018-08-17T08:09:27.975Z,1003.17
2018-08-17T08:10:28.005Z,1003.19
2018-08-17T08:11:28.027Z,1003.24
2018-08-17T08:12:28.058Z,1003.25
2018-08-17T08:13:28.081Z,1003.23
2018-08-17T08:14:28.106Z,1003.29
2018-08-17T08:15:28.135Z,1003.27
2018-08-17T08:16:28.197Z,1003.30
2018-08-17T08:17:28.183Z,1003.29
2018-08-17T08:18:28.226Z,1003.30
2018-08-17T08:19:28.232Z,1003.36
2018-08-17T08:20:28.440Z,1003.31
2018-08-17T08:21:28.300Z,1003.34
2018-08-17T08:22:28.321Z,1003.37
2018-08-17T08:23:28.339Z,1003.38
2018-08-17T08:24:28.370Z,1003.35
2018-08-17T08:25:28.406Z,1003.40
2018-08-17T08:26:28.433Z,1003.42
2018-08-17T08:27:28.448Z,1003.42
2018-08-17T08:28:28.506Z,1003.42
2018-08-17T08:29:28.505Z,1003.42
2018-08-17T08:30:28.523Z,1003.39
2018-08-17T08:31:28.551Z,1003.45
2018-08-17T08:32:28.596Z,1003.42
2018-08-17T08:33:28.615Z,1003.43
2018-08-17T08:34:28.635Z,1003.46
2018-08-17T08:35:28.662Z,1003.46
2018-08-17T08:36:28.688Z,1003.45
2018-08-17T08:37:28.713Z,1003.49
2018-08-17T08:38:28.743Z,1003.52
2018-08-17T08:39:28.769Z,1003.52
2018-08-17T08:40:28.797Z,1003.56
2018-08-17T08:41:28.833Z,1003.50
2018-08-17T08:42:28.853Z,1003.57
2018-08-17T08:43:28.870Z,1003.58
2018-08-17T08:44:28.933Z,1003.59
2018-08-17T08:45:28.957Z,1003.61
2018-08-17T08:46:28.972Z,1003.59
2018-08-17T08:47:28.970Z,1003.58
2018-08-17T08:48:29.015Z,1003.60
2018-08-17T08:49:29.037Z,1003.59
2018-08-17T08:50:29.082Z,1003.59
2018-08-17T08:51:29.088Z,1003.63
2018-08-17T08:52:29.114Z,1003.59
2018-08-17T08:53:29.139Z,1003.65
2018-08-17T08:54:29.200Z,1003.61
2018-08-17T08:55:29.192Z,1003.58
2018-08-17T08:56:29.219Z,1003.63
2018-08-17T08:57:29.243Z,1003.62
2018-08-17T08:58:29.275Z,1003.65
2018-08-17T08:59:29.296Z,1003.63
2018-08-17T09:00:29.321Z,1003.60
2018-08-17T09:01:29.357Z,1003.61
2018-08-17T09:02:29.418Z,1003.52
2018-08-17T09:03:29.407Z,1003.59
2018-08-17T09:04:29.432Z,1003.57
2018-08-17T09:05:29.460Z,1003.60
2018-08-17T09:06:29.492Z,1003.56
2018-08-17T09:07:29.515Z,1003.55
2018-08-17T09:08:29.602Z,1003.60
2018-08-17T09:09:29.568Z,1003.56
2018-08-17T09:10:29.613Z,1003.57
2018-08-17T09:11:29.641Z,1003.58
2018-08-17T09:12:29.653Z,1003.62
2018-08-17T09:13:29.673Z,1003.65
2018-08-17T09:14:29.704Z,1003.68
2018-08-17T09:15:29.728Z,1003.74
2018-08-17T09:16:29.757Z,1003.72
2018-08-17T09:17:29.787Z,1003.69
2018-08-17T09:18:29.828Z,1003.71
2018-08-17T09:19:29.842Z,1003.67
2018-08-17T09:20:29.873Z,1003.69
2018-08-17T09:21:29.897Z,1003.71
2018-08-17T09:22:29.921Z,1003.70
2018-08-17T09:23:29.957Z,1003.72
2018-08-17T09:24:29.972Z,1003.72
2018-08-17T09:25:30.005Z,1003.67
2018-08-17T09:26:30.027Z,1003.69
2018-08-17T09:27:30.067Z,1003.70
2018-08-17T09:28:30.086Z,1003.71
2018-08-17T09:29:30.123Z,1003.75
2018-08-17T09:30:30.147Z,1003.72
2018-08-17T09:31:30.174Z,1003.69
2018-08-17T09:32:30.187Z,1003.72
2018-08-17T09:33:30.236Z,1003.71
2018-08-17T09:34:30.254Z,1003.70
2018-08-17T09:35:30.270Z,1003.72
2018-08-17T09:36:30.303Z,1003.69
2018-08-17T09:37:30.327Z,1003.72
2018-08-17T09:38:30.359Z,1003.71
2018-08-17T09:39:30.390Z,1003.72
2018-08-17T09:40:30.418Z,1003.67
2018-08-17T09:41:30.442Z,1003.69
2018-08-17T09:42:30.480Z,1003.70
2018-08-17T09:43:30.496Z,1003.68
2018-08-17T09:44:30.525Z,1003.66
2018-08-17T09:45:30.570Z,1003.69
2018-08-17T09:46:30.576Z,1003.67
2018-08-17T09:47:30.605Z,1003.70
2018-08-17T09:48:30.640Z,1003.68
2018-08-17T09:49:30.662Z,1003.65
2018-08-17T09:50:30.694Z,1003.65
2018-08-17T09:51:30.717Z,1003.65
2018-08-17T09:52:30.749Z,1003.64
2018-08-17T09:53:30.771Z,1003.65
2018-08-17T09:54:30.802Z,1003.61
2018-08-17T09:55:30.829Z,1003.62
2018-08-17T09:56:30.855Z,1003.60
2018-08-17T09:57:30.949Z,1003.58
2018-08-17T09:58:30.912Z,1003.58
2018-08-17T09:59:30.949Z,1003.59
2018-08-17T10:00:30.988Z,1003.61
2018-08-17T10:01:31.020Z,1003.59
2018-08-17T10:02:31.031Z,1003.57
2018-08-17T10:03:31.069Z,1003.58
2018-08-17T10:04:31.074Z,1003.59
2018-08-17T10:05:31.099Z,1003.53
2018-08-17T10:06:31.136Z,1003.51
2018-08-17T10:07:31.155Z,1003.58
2018-08-17T10:08:31.190Z,1003.56
2018-08-17T10:09:31.215Z,1003.60
2018-08-17T10:10:31.245Z,1003.60
2018-08-17T10:11:31.270Z,1003.64
2018-08-17T10:12:31.316Z,1003.63
2018-08-17T10:13:31.329Z,1003.69
2018-08-17T10:14:31.353Z,1003.67
2018-08-17T10:15:31.383Z,1003.67
2018-08-17T10:16:31.413Z,1003.67
2018-08-17T10:17:31.437Z,1003.62
2018-08-17T10:18:31.474Z,1003.66
2018-08-17T10:19:31.501Z,1003.61
2018-08-17T10:20:31.523Z,1003.61
2018-08-17T10:21:31.846Z,1003.63
2018-08-17T10:22:31.577Z,1003.63
2018-08-17T10:23:31.607Z,1003.64
2018-08-17T10:24:31.639Z,1003.61
2018-08-17T10:25:31.663Z,1003.57
2018-08-17T10:26:31.687Z,1003.57
2018-08-17T10:27:31.728Z,1003.61
2018-08-17T10:28:31.759Z,1003.60
2018-08-17T10:29:31.784Z,1003.62
2018-08-17T10:30:31.801Z,1003.61
2018-08-17T10:31:31.831Z,1003.63
2018-08-17T10:32:31.874Z,1003.64
2018-08-17T10:33:32.180Z,1003.66
2018-08-17T10:34:31.926Z,1003.60
2018-08-17T10:35:31.943Z,1003.63
2018-08-17T10:36:31.974Z,1003.57
2018-08-17T10:37:31.995Z,1003.62
2018-08-17T10:38:32.031Z,1003.61
2018-08-17T10:39:32.060Z,1003.58
2018-08-17T10:40:32.088Z,1003.58
2018-08-17T10:41:32.108Z,1003.58
2018-08-17T10:42:32.143Z,1003.59
2018-08-17T10:43:32.161Z,1003.57
2018-08-17T10:44:32.196Z,1003.57
2018-08-17T10:45:32.231Z,1003.58
2018-08-17T10:46:32.266Z,1003.55
2018-08-17T10:47:32.299Z,1003.59
2018-08-17T10:48:32.309Z,1003.57
2018-08-17T10:49:32.340Z,1003.54
2018-08-17T10:50:32.373Z,1003.55
2018-08-17T10:51:32.394Z,1003.50
2018-08-17T10:52:32.434Z,1003.51
2018-08-17T10:53:32.826Z,1003.47
2018-08-17T10:54:32.480Z,1003.49
2018-08-17T10:55:32.554Z,1003.49
2018-08-17T10:56:32.545Z,1003.46
2018-08-17T10:57:32.654Z,1003.47
2018-08-17T10:58:32.614Z,1003.46
2018-08-17T10:59:32.621Z,1003.50
2018-08-17T11:00:32.649Z,1003.50
2018-08-17T11:01:32.677Z,1003.50
2018-08-17T11:02:32.708Z,1003.51
2018-08-17T11:03:32.733Z,1003.50
2018-08-17T11:04:32.759Z,1003.49
2018-08-17T11:05:32.793Z,1003.46
2018-08-17T11:06:32.818Z,1003.42
2018-08-17T11:07:32.849Z,1003.41
2018-08-17T11:08:32.876Z,1003.41
2018-08-17T11:09:32.906Z,1003.43
2018-08-17T11:10:32.947Z,1003.41
2018-08-17T11:11:32.964Z,1003.29
2018-08-17T11:12:32.992Z,1003.30
2018-08-17T11:13:33.082Z,1003.33
2018-08-17T11:14:33.053Z,1003.29
2018-08-17T11:15:33.081Z,1003.29
2018-08-17T11:16:33.110Z,1003.32
2018-08-17T11:17:33.140Z,1003.29
2018-08-17T11:18:33.169Z,1003.27
2018-08-17T11:19:33.194Z,1003.25
2018-08-17T11:20:33.220Z,1003.22
2018-08-17T11:21:33.257Z,1003.23
2018-08-17T11:22:33.282Z,1003.27
2018-08-17T11:23:33.308Z,1003.20
2018-08-17T11:24:33.334Z,1003.19
2018-08-17T11:25:33.368Z,1003.17
2018-08-17T11:26:33.393Z,1003.19
2018-08-17T11:27:33.420Z,1003.18
2018-08-17T11:28:33.467Z,1003.16
2018-08-17T11:29:33.477Z,1003.12
2018-08-17T11:30:33.513Z,1003.14
2018-08-17T11:31:33.538Z,1003.15
2018-08-17T11:32:33.564Z,1003.16
2018-08-17T11:33:33.596Z,1003.18
2018-08-17T11:34:33.620Z,1003.17
2018-08-17T11:35:33.668Z,1003.21
2018-08-17T11:36:33.685Z,1003.19
2018-08-17T11:37:33.707Z,1003.18
2018-08-17T11:38:33.737Z,1003.16
2018-08-17T11:39:33.780Z,1003.19
2018-08-17T11:40:33.812Z,1003.16
2018-08-17T11:41:33.936Z,1003.16
2018-08-17T11:42:33.856Z,1003.20
2018-08-17T11:43:33.891Z,1003.20
2018-08-17T11:44:33.914Z,1003.18
2018-08-17T11:45:33.943Z,1003.17
2018-08-17T11:46:33.974Z,1003.17
2018-08-17T11:47:34.000Z,1003.19
2018-08-17T11:48:34.036Z,1003.17
2018-08-17T11:49:34.051Z,1003.17
2018-08-17T11:50:34.088Z,1003.21
2018-08-17T11:51:34.113Z,1003.20
2018-08-17T11:52:34.139Z,1003.16
2018-08-17T11:53:34.247Z,1003.17
2018-08-17T11:54:34.197Z,1003.16
2018-08-17T11:55:34.253Z,1003.18
2018-08-17T11:56:34.272Z,1003.16
2018-08-17T11:57:34.317Z,1003.11
2018-08-17T11:58:34.329Z,1003.13
2018-08-17T11:59:34.346Z,1003.11
2018-08-17T12:00:34.382Z,1003.06
2018-08-17T12:01:34.407Z,1003.09
2018-08-17T12:02:34.443Z,1003.12
2018-08-17T12:03:34.473Z,1003.11
2018-08-17T12:04:34.505Z,1003.14
2018-08-17T12:05:34.521Z,1003.15
2018-08-17T12:06:34.549Z,1003.13
2018-08-17T12:07:34.627Z,1003.09
2018-08-17T12:08:34.641Z,1003.11